createdAt,value
2022-12-08T00:01:42.019Z,-9.45
2022-12-08T00:04:11.277Z,-9.52
2022-12-08T00:06:59.750Z,-9.52
2022-12-08T00:09:37.955Z,-9.54
2022-12-08T00:12:08.029Z,-9.55
2022-12-08T00:14:37.596Z,-9.56
2022-12-08T00:17:05.974Z,-9.54
2022-12-08T00:19:34.119Z,-9.53
2022-12-08T00:22:04.149Z,-9.56
2022-12-08T00:24:33.977Z,-9.58
2022-12-08T00:27:01.936Z,-9.57
2022-12-08T00:29:29.994Z,-9.48
2022-12-08T00:31:58.001Z,-9.46
2022-12-08T00:34:25.862Z,-9.53
2022-12-08T00:36:54.286Z,-9.46
2022-12-08T00:39:23.661Z,-9.49
2022-12-08T00:42:09.190Z,-9.48
2022-12-08T00:44:37.061Z,-9.42
2022-12-08T00:47:05.244Z,-9.42
2022-12-08T00:49:35.850Z,-9.38
2022-12-08T00:52:04.366Z,-9.40
2022-12-08T00:54:33.743Z,-9.42
2022-12-08T00:57:01.607Z,-9.49
2022-12-08T00:59:29.479Z,-9.43
2022-12-08T01:01:57.550Z,-9.32
2022-12-08T01:04:25.385Z,-9.38
2022-12-08T01:06:53.267Z,-9.37
2022-12-08T01:09:21.051Z,-9.56
2022-12-08T01:11:50.443Z,-9.43
2022-12-08T01:14:19.088Z,-9.46
2022-12-08T01:16:47.265Z,-9.42
2022-12-08T01:19:20.614Z,-9.40
2022-12-08T01:21:48.903Z,-9.37
2022-12-08T01:24:18.281Z,-9.39
2022-12-08T01:26:46.458Z,-9.43
2022-12-08T01:29:16.227Z,-9.45
2022-12-08T01:31:44.240Z,-9.54
2022-12-08T01:34:12.758Z,-9.50
2022-12-08T01:36:40.578Z,-9.52
2022-12-08T01:39:11.313Z,-9.53
2022-12-08T01:41:39.629Z,-9.56
2022-12-08T01:44:41.262Z,-9.59
2022-12-08T01:47:11.342Z,-9.63
2022-12-08T01:49:39.148Z,-9.68
2022-12-08T01:52:15.281Z,-9.72
2022-12-08T01:54:46.759Z,-9.75
2022-12-08T01:57:19.567Z,-9.75
2022-12-08T01:59:53.242Z,-9.80
2022-12-08T02:02:22.533Z,-9.83
2022-12-08T02:04:50.687Z,-9.76
2022-12-08T02:07:19.637Z,-9.80
2022-12-08T02:09:47.654Z,-9.96
2022-12-08T02:12:15.870Z,-9.84
2022-12-08T02:14:43.871Z,-9.84
2022-12-08T02:17:23.401Z,-9.91
2022-12-08T02:20:21.725Z,-9.87
2022-12-08T02:22:56.340Z,-9.91
2022-12-08T02:25:37.339Z,-9.92
2022-12-08T02:28:17.714Z,-9.90
2022-12-08T02:30:52.489Z,-9.91
2022-12-08T02:33:48.387Z,-9.92
2022-12-08T02:36:25.259Z,-9.94
2022-12-08T02:39:01.304Z,-9.99
2022-12-08T02:41:38.201Z,-10.02
2022-12-08T02:44:14.642Z,-10.05
2022-12-08T02:46:51.698Z,-10.06
2022-12-08T02:49:20.847Z,-10.08
2022-12-08T02:51:48.589Z,-10.12
2022-12-08T02:54:16.633Z,-10.14
2022-12-08T02:56:59.687Z,-10.17
2022-12-08T02:59:41.524Z,-10.21
2022-12-08T03:02:26.941Z,-10.24
2022-12-08T03:05:07.841Z,-10.20
2022-12-08T03:07:41.800Z,-10.22
2022-12-08T03:10:13.629Z,-10.12
2022-12-08T03:12:49.554Z,-10.15
2022-12-08T03:15:20.644Z,-10.20
2022-12-08T03:17:53.908Z,-10.19
2022-12-08T03:20:26.871Z,-10.22
2022-12-08T03:22:57.524Z,-10.26
2022-12-08T03:25:28.284Z,-10.26
2022-12-08T03:27:56.211Z,-10.21
2022-12-08T03:30:24.460Z,-10.22
2022-12-08T03:32:58.654Z,-10.22
2022-12-08T03:35:34.406Z,-10.23
2022-12-08T03:38:07.475Z,-10.28
2022-12-08T03:40:35.828Z,-10.32
2022-12-08T03:43:03.847Z,-10.38
2022-12-08T03:45:31.834Z,-10.44
2022-12-08T03:47:59.773Z,-10.35
2022-12-08T03:50:28.978Z,-10.32
2022-12-08T03:52:56.937Z,-10.36
2022-12-08T03:55:25.015Z,-10.41
2022-12-08T03:57:52.858Z,-10.44
2022-12-08T04:00:20.922Z,-10.50
2022-12-08T04:02:49.118Z,-10.54
2022-12-08T04:05:18.284Z,-10.55
2022-12-08T04:07:47.673Z,-10.49
2022-12-08T04:10:15.775Z,-10.50
2022-12-08T04:12:44.083Z,-10.66
2022-12-08T04:15:12.392Z,-10.57
2022-12-08T04:17:40.206Z,-10.55
2022-12-08T04:20:08.911Z,-10.57
2022-12-08T04:22:36.708Z,-10.65
2022-12-08T04:25:07.098Z,-10.66
2022-12-08T04:27:34.984Z,-10.65
2022-12-08T04:30:03.519Z,-10.66
2022-12-08T04:32:31.627Z,-10.65
2022-12-08T04:34:59.398Z,-10.55
2022-12-08T04:37:27.148Z,-10.61
2022-12-08T04:39:54.938Z,-10.52
2022-12-08T04:42:24.103Z,-10.56
2022-12-08T04:44:51.870Z,-10.75
2022-12-08T04:47:20.952Z,-10.56
2022-12-08T04:49:49.125Z,-10.52
2022-12-08T04:52:16.967Z,-10.44
2022-12-08T04:54:45.002Z,-10.42
2022-12-08T04:57:12.814Z,-10.44
2022-12-08T04:59:41.989Z,-10.58
2022-12-08T05:02:09.902Z,-10.38
2022-12-08T05:04:37.741Z,-10.44
2022-12-08T05:07:05.648Z,-10.47
2022-12-08T05:09:33.459Z,-10.52
2022-12-08T05:12:01.305Z,-10.54
2022-12-08T05:14:29.108Z,-10.59
2022-12-08T05:16:58.219Z,-10.62
2022-12-08T05:19:26.269Z,-10.66
2022-12-08T05:21:54.286Z,-10.68
2022-12-08T05:24:22.158Z,-10.71
2022-12-08T05:26:49.937Z,-10.69
2022-12-08T05:37:35.146Z,-10.70
2022-12-08T05:40:03.221Z,-10.70
2022-12-08T05:42:31.261Z,-10.69
2022-12-08T05:44:59.090Z,-10.68
2022-12-08T05:47:31.829Z,-10.68
2022-12-08T05:50:04.055Z,-10.67
2022-12-08T05:52:33.119Z,-10.67
2022-12-08T05:55:01.446Z,-10.70
2022-12-08T05:57:29.487Z,-10.64
2022-12-08T05:59:59.516Z,-10.67
2022-12-08T06:02:30.087Z,-10.43
2022-12-08T06:04:58.012Z,-10.42
2022-12-08T06:07:26.083Z,-10.39
2022-12-08T06:09:53.965Z,-10.35
2022-12-08T06:12:21.854Z,-10.32
2022-12-08T06:14:49.598Z,-10.41
2022-12-08T06:17:17.772Z,-10.51
2022-12-08T06:19:46.964Z,-10.57
2022-12-08T06:22:15.667Z,-10.61
2022-12-08T06:24:44.469Z,-10.63
2022-12-08T06:27:12.380Z,-10.67
2022-12-08T06:29:40.335Z,-10.80
2022-12-08T06:32:08.125Z,-10.72
2022-12-08T06:34:35.856Z,-10.76
2022-12-08T06:37:05.044Z,-10.78
2022-12-08T06:39:33.343Z,-10.79
2022-12-08T06:42:19.427Z,-10.79
2022-12-08T06:44:48.033Z,-10.81
2022-12-08T06:47:15.918Z,-10.81
2022-12-08T06:49:44.171Z,-10.77
2022-12-08T06:52:13.897Z,-10.73
2022-12-08T06:54:42.034Z,-10.74
2022-12-08T06:57:10.006Z,-10.75
2022-12-08T06:59:37.934Z,-10.78
2022-12-08T07:02:05.722Z,-10.75
2022-12-08T07:04:35.909Z,-10.76
2022-12-08T07:07:03.855Z,-10.79
2022-12-08T07:09:33.291Z,-10.81
2022-12-08T07:12:01.418Z,-10.84
2022-12-08T07:14:30.245Z,-10.84
2022-12-08T07:16:58.011Z,-10.87
2022-12-08T07:19:25.848Z,-10.88
2022-12-08T07:21:53.742Z,-10.88
2022-12-08T07:24:21.762Z,-11.08
2022-12-08T07:26:51.138Z,-10.86
2022-12-08T07:29:24.601Z,-10.87
2022-12-08T07:31:54.621Z,-10.89
2022-12-08T07:34:22.405Z,-10.91
2022-12-08T07:36:52.499Z,-10.90
2022-12-08T07:39:20.214Z,-10.91
2022-12-08T07:41:48.003Z,-11.11
2022-12-08T07:44:18.000Z,-10.85
2022-12-08T07:46:45.972Z,-10.85
2022-12-08T07:49:14.072Z,-10.83
2022-12-08T07:51:41.936Z,-10.81
2022-12-08T07:54:12.616Z,-10.78
2022-12-08T07:56:41.496Z,-10.77
2022-12-08T07:59:09.445Z,-10.76
2022-12-08T08:01:40.016Z,-10.74
2022-12-08T08:04:08.139Z,-10.68
2022-12-08T08:06:36.980Z,-10.64
2022-12-08T08:09:05.732Z,-10.65
2022-12-08T08:11:33.666Z,-11.09
2022-12-08T08:14:01.435Z,-10.59
2022-12-08T08:16:36.580Z,-10.59
2022-12-08T08:19:07.331Z,-10.56
2022-12-08T08:21:50.496Z,-10.53
2022-12-08T08:24:18.531Z,-10.47
2022-12-08T08:26:46.659Z,-10.45
2022-12-08T08:29:14.684Z,-10.45
2022-12-08T08:31:42.554Z,-10.38
2022-12-08T08:34:11.895Z,-10.32
2022-12-08T08:36:41.239Z,-10.22
2022-12-08T08:39:09.317Z,-10.16
2022-12-08T08:41:37.138Z,-10.08
2022-12-08T08:44:05.816Z,-10.02
2022-12-08T08:46:33.993Z,-10.01
2022-12-08T08:49:01.957Z,-9.88
2022-12-08T08:51:31.167Z,-9.82
2022-12-08T08:53:59.623Z,-9.75
2022-12-08T08:56:27.648Z,-9.72
2022-12-08T08:58:55.834Z,-9.68
2022-12-08T09:01:28.358Z,-9.57
2022-12-08T09:03:56.967Z,-9.52
2022-12-08T09:06:25.194Z,-9.45
2022-12-08T09:08:54.423Z,-9.37
2022-12-08T09:11:23.421Z,-9.30
2022-12-08T09:13:52.281Z,-9.33
2022-12-08T09:16:23.283Z,-9.27
2022-12-08T09:18:51.332Z,-9.19
2022-12-08T09:21:22.795Z,-9.13
2022-12-08T09:23:51.076Z,-9.09
2022-12-08T09:26:22.359Z,-9.00
2022-12-08T09:28:51.085Z,-8.92
2022-12-08T09:31:19.994Z,-8.85
2022-12-08T09:33:48.513Z,-8.78
2022-12-08T09:36:16.324Z,-8.73
2022-12-08T09:38:44.104Z,-8.73
2022-12-08T09:41:18.022Z,-8.68
2022-12-08T09:43:59.219Z,-8.63
2022-12-08T09:46:31.609Z,-8.61
2022-12-08T09:49:05.025Z,-8.57
2022-12-08T09:51:37.619Z,-8.54
2022-12-08T09:54:12.604Z,-8.52
2022-12-08T09:56:41.548Z,-8.51
2022-12-08T09:59:23.593Z,-8.48
2022-12-08T10:01:51.912Z,-8.58
2022-12-08T10:04:25.134Z,-8.44
2022-12-08T10:07:02.601Z,-8.51
2022-12-08T10:09:38.615Z,-8.35
2022-12-08T10:12:15.902Z,-8.35
2022-12-08T10:14:47.360Z,-8.18
2022-12-08T10:17:21.643Z,-8.06
2022-12-08T10:19:52.245Z,-7.95
2022-12-08T10:22:24.410Z,-7.84
2022-12-08T10:24:59.721Z,-7.67
2022-12-08T10:27:27.866Z,-7.37
2022-12-08T10:29:57.039Z,-6.85
2022-12-08T10:32:29.566Z,-6.10
2022-12-08T10:35:04.638Z,-5.39
2022-12-08T10:37:32.800Z,-4.84
2022-12-08T10:40:04.270Z,-3.88
2022-12-08T10:42:38.925Z,-2.78
2022-12-08T10:45:24.446Z,-2.13
2022-12-08T10:47:59.867Z,-2.19
2022-12-08T10:50:34.163Z,-2.23
2022-12-08T10:53:04.028Z,-2.26
2022-12-08T10:55:41.707Z,-2.58
2022-12-08T10:58:25.508Z,-2.87
2022-12-08T11:00:58.732Z,-2.91
2022-12-08T11:03:30.871Z,-2.77
2022-12-08T11:06:05.578Z,-1.86
2022-12-08T11:08:47.692Z,-1.21
2022-12-08T11:11:17.014Z,-0.81
2022-12-08T11:13:45.296Z,-1.33
2022-12-08T11:16:16.814Z,-1.91
2022-12-08T11:18:47.016Z,-2.62
2022-12-08T11:21:17.514Z,-3.07
2022-12-08T11:23:50.866Z,-3.62
2022-12-08T11:26:27.270Z,-3.34
2022-12-08T11:28:55.233Z,-2.65
2022-12-08T11:31:30.297Z,-1.22
2022-12-08T11:33:58.959Z,0.19
2022-12-08T11:36:30.422Z,1.49
2022-12-08T11:39:02.136Z,1.94
2022-12-08T11:41:35.112Z,1.41
2022-12-08T11:44:08.572Z,0.35
2022-12-08T11:46:44.261Z,-0.70
2022-12-08T11:49:14.673Z,-1.87
2022-12-08T11:51:49.610Z,-2.49
2022-12-08T11:54:24.610Z,-3.22
2022-12-08T11:56:55.572Z,-3.81
2022-12-08T11:59:29.634Z,-4.37
2022-12-08T12:02:00.868Z,-4.52
2022-12-08T12:04:33.418Z,-4.75
2022-12-08T12:07:32.153Z,-4.88
2022-12-08T12:10:26.595Z,-4.96
2022-12-08T12:13:06.551Z,-4.94
2022-12-08T12:16:13.191Z,-5.10
2022-12-08T12:18:46.638Z,-5.15
2022-12-08T12:21:20.258Z,-5.17
2022-12-08T12:23:53.880Z,-5.20
2022-12-08T12:26:23.539Z,-5.23
2022-12-08T12:28:56.270Z,-5.21
2022-12-08T12:31:27.768Z,-5.20
2022-12-08T12:34:07.451Z,-5.19
2022-12-08T12:36:49.038Z,-5.21
2022-12-08T12:39:23.035Z,-5.15
2022-12-08T12:41:54.871Z,-5.17
2022-12-08T12:44:39.985Z,-5.17
2022-12-08T12:47:14.782Z,-5.18
2022-12-08T12:50:15.082Z,-5.31
2022-12-08T12:52:57.928Z,-5.36
2022-12-08T12:55:45.649Z,-5.41
2022-12-08T12:58:35.778Z,-5.46
2022-12-08T13:01:39.706Z,-5.51
2022-12-08T13:04:10.583Z,-5.57
2022-12-08T13:06:43.254Z,-5.57
2022-12-08T13:09:22.537Z,-5.64
2022-12-08T13:11:55.389Z,-5.71
2022-12-08T13:14:36.181Z,-5.77
2022-12-08T13:17:11.178Z,-5.89
2022-12-08T13:19:40.771Z,-6.01
2022-12-08T13:22:46.586Z,-6.16
2022-12-08T13:25:51.196Z,-6.37
2022-12-08T13:28:28.806Z,-6.60
2022-12-08T13:30:58.499Z,-6.76
2022-12-08T13:33:30.821Z,-6.96
2022-12-08T13:36:06.937Z,-7.15
2022-12-08T13:38:38.415Z,-7.13
2022-12-08T13:41:17.408Z,-7.19
2022-12-08T13:44:20.178Z,-7.32
2022-12-08T13:58:19.729Z,-7.56
2022-12-08T14:00:59.823Z,-7.46
2022-12-08T14:03:27.677Z,-7.33
2022-12-08T14:06:12.911Z,-7.24
2022-12-08T14:09:05.035Z,-7.16
2022-12-08T14:11:36.101Z,-7.06
2022-12-08T14:14:08.593Z,-7.05
2022-12-08T14:16:40.115Z,-7.06
2022-12-08T14:19:17.257Z,-7.10
2022-12-08T14:21:52.196Z,-7.14
2022-12-08T14:24:20.206Z,-7.44
2022-12-08T14:26:48.407Z,-7.11
2022-12-08T14:29:37.550Z,-7.07
2022-12-08T14:32:05.880Z,-7.04
2022-12-08T14:34:40.521Z,-7.07
2022-12-08T14:37:13.983Z,-7.09
2022-12-08T14:39:41.986Z,-7.11
2022-12-08T14:42:22.785Z,-7.10
2022-12-08T14:44:58.191Z,-7.13
2022-12-08T14:47:31.424Z,-7.15
2022-12-08T14:49:59.311Z,-7.24
2022-12-08T14:52:28.675Z,-7.41
2022-12-08T14:54:57.451Z,-7.51
2022-12-08T14:57:36.388Z,-7.60
2022-12-08T15:00:22.007Z,-7.70
2022-12-08T15:02:50.387Z,-7.85
2022-12-08T15:05:21.845Z,-7.96
2022-12-08T15:07:52.388Z,-8.08
2022-12-08T15:10:24.914Z,-8.18
2022-12-08T15:13:03.170Z,-8.26
2022-12-08T15:15:45.930Z,-8.36
2022-12-08T15:18:17.708Z,-8.46
2022-12-08T15:20:47.915Z,-8.56
2022-12-08T15:23:26.136Z,-8.64
2022-12-08T15:25:54.320Z,-8.76
2022-12-08T15:28:28.129Z,-8.86
2022-12-08T15:31:00.058Z,-9.01
2022-12-08T15:33:28.232Z,-9.10
2022-12-08T15:35:56.309Z,-9.21
2022-12-08T15:38:25.990Z,-9.28
2022-12-08T15:40:54.506Z,-9.38
2022-12-08T15:43:23.504Z,-9.46
2022-12-08T15:45:59.059Z,-9.50
2022-12-08T15:48:31.216Z,-9.61
2022-12-08T15:51:00.001Z,-9.54
2022-12-08T15:53:28.287Z,-9.59
2022-12-08T15:58:53.728Z,-9.70
2022-12-08T16:01:22.571Z,-9.74
2022-12-08T16:09:34.223Z,-9.80
2022-12-08T16:12:20.972Z,-9.66
2022-12-08T16:17:38.045Z,-9.74
2022-12-08T16:20:10.047Z,-9.60
2022-12-08T16:22:59.688Z,-9.41
2022-12-08T16:25:28.689Z,-9.11
2022-12-08T16:28:03.179Z,-8.98
2022-12-08T16:30:34.455Z,-9.04
2022-12-08T16:33:02.726Z,-9.11
2022-12-08T16:35:32.420Z,-9.20
2022-12-08T16:38:00.293Z,-9.28
2022-12-08T16:40:28.412Z,-9.36
2022-12-08T16:42:55.202Z,-9.33
2022-12-08T16:45:24.816Z,-9.22
2022-12-08T16:47:54.216Z,-8.97
2022-12-08T16:50:24.994Z,-8.87
2022-12-08T16:52:58.189Z,-8.89
2022-12-08T16:55:27.035Z,-8.91
2022-12-08T16:57:55.254Z,-8.88
2022-12-08T17:00:24.818Z,-8.86
2022-12-08T17:02:53.077Z,-8.91
2022-12-08T17:05:22.440Z,-9.06
2022-12-08T17:07:52.675Z,-8.95
2022-12-08T17:10:24.059Z,-8.97
2022-12-08T17:12:52.576Z,-9.04
2022-12-08T17:15:23.328Z,-8.97
2022-12-08T17:17:52.112Z,-8.96
2022-12-08T17:20:22.732Z,-8.97
2022-12-08T17:22:50.607Z,-9.00
2022-12-08T17:25:18.433Z,-9.11
2022-12-08T17:27:47.863Z,-9.22
2022-12-08T17:30:17.711Z,-9.37
2022-12-08T17:32:46.215Z,-9.50
2022-12-08T17:35:14.458Z,-9.60
2022-12-08T17:37:44.159Z,-9.69
2022-12-08T17:40:12.533Z,-9.92
2022-12-08T17:42:40.797Z,-9.88
2022-12-08T17:45:11.086Z,-10.00
2022-12-08T17:47:39.080Z,-10.04
2022-12-08T17:50:08.476Z,-10.10
2022-12-08T17:52:36.671Z,-10.18
2022-12-08T17:55:04.802Z,-10.22
2022-12-08T17:57:32.564Z,-10.25
2022-12-08T18:00:00.286Z,-10.20
2022-12-08T18:02:31.060Z,-10.22
2022-12-08T18:04:59.040Z,-10.19
2022-12-08T18:07:26.926Z,-10.03
2022-12-08T18:09:54.874Z,-9.91
2022-12-08T18:12:24.772Z,-9.91
2022-12-08T18:14:52.735Z,-9.94
2022-12-08T18:17:20.794Z,-10.01
2022-12-08T18:19:49.961Z,-9.99
2022-12-08T18:22:17.779Z,-9.99
2022-12-08T18:24:47.600Z,-9.94
2022-12-08T18:27:15.621Z,-9.91
2022-12-08T18:29:43.559Z,-9.91
2022-12-08T18:32:11.628Z,-9.89
2022-12-08T18:34:39.382Z,-9.89
2022-12-08T18:37:08.896Z,-9.88
2022-12-08T18:39:37.558Z,-9.94
2022-12-08T18:42:22.740Z,-9.80
2022-12-08T18:44:51.704Z,-9.80
2022-12-08T18:47:19.978Z,-9.76
2022-12-08T18:49:47.911Z,-9.74
2022-12-08T18:52:24.104Z,-9.70
2022-12-08T18:55:06.286Z,-9.64
2022-12-08T18:57:35.323Z,-9.51
2022-12-08T19:00:03.828Z,-9.44
2022-12-08T19:02:31.886Z,-9.35
2022-12-08T19:04:59.696Z,-9.28
2022-12-08T19:07:28.823Z,-9.25
2022-12-08T19:09:56.652Z,-9.23
2022-12-08T19:12:24.543Z,-9.16
2022-12-08T19:14:52.465Z,-9.10
2022-12-08T19:17:21.004Z,-9.02
2022-12-08T19:19:48.760Z,-8.96
2022-12-08T19:22:16.551Z,-8.87
2022-12-08T19:24:45.763Z,-8.82
2022-12-08T19:27:13.620Z,-8.81
2022-12-08T19:29:41.448Z,-8.77
2022-12-08T19:32:09.309Z,-8.72
2022-12-08T19:34:37.167Z,-8.85
2022-12-08T19:37:05.155Z,-8.61
2022-12-08T19:39:50.530Z,-8.56
2022-12-08T19:42:39.239Z,-8.52
2022-12-08T19:45:11.947Z,-8.43
2022-12-08T19:47:40.369Z,-8.46
2022-12-08T19:50:29.253Z,-8.32
2022-12-08T19:52:57.105Z,-8.22
2022-12-08T19:55:25.549Z,-8.18
2022-12-08T19:57:56.694Z,-8.08
2022-12-08T20:00:25.097Z,-8.04
2022-12-08T20:02:53.252Z,-7.99
2022-12-08T20:05:21.325Z,-7.99
2022-12-08T20:07:49.401Z,-8.02
2022-12-08T20:10:18.935Z,-8.07
2022-12-08T20:12:47.016Z,-8.10
2022-12-08T20:15:16.374Z,-8.08
2022-12-08T20:17:44.436Z,-8.06
2022-12-08T20:20:14.699Z,-8.03
2022-12-08T20:22:42.926Z,-7.95
2022-12-08T20:25:13.188Z,-7.90
2022-12-08T20:27:41.402Z,-7.83
2022-12-08T20:30:16.478Z,-7.81
2022-12-08T20:32:46.110Z,-7.74
2022-12-08T20:35:16.864Z,-7.71
2022-12-08T20:37:44.620Z,-7.76
2022-12-08T20:40:12.941Z,-7.78
2022-12-08T20:42:40.756Z,-7.84
2022-12-08T20:45:10.036Z,-7.84
2022-12-08T20:47:38.536Z,-7.83
2022-12-08T20:50:11.613Z,-7.83
2022-12-08T20:52:39.646Z,-7.80
2022-12-08T20:55:09.127Z,-7.79
2022-12-08T20:57:37.056Z,-7.83
2022-12-08T21:00:06.501Z,-7.81
2022-12-08T21:02:34.858Z,-7.81
2022-12-08T21:05:03.328Z,-7.81
2022-12-08T21:07:33.714Z,-7.81
2022-12-08T21:10:01.637Z,-7.76
2022-12-08T21:12:29.564Z,-7.61
2022-12-08T21:14:57.665Z,-7.69
2022-12-08T21:17:25.670Z,-7.53
2022-12-08T21:19:53.708Z,-7.51
2022-12-08T21:22:21.771Z,-7.46
2022-12-08T21:24:51.185Z,-7.43
2022-12-08T21:27:19.023Z,-7.41
2022-12-08T21:29:46.928Z,-7.36
2022-12-08T21:32:14.938Z,-7.30
2022-12-08T21:34:44.286Z,-7.28
2022-12-08T21:37:12.348Z,-7.27
2022-12-08T21:39:40.362Z,-7.26
2022-12-08T21:42:33.725Z,-7.24
2022-12-08T21:45:02.413Z,-7.24
2022-12-08T21:47:30.357Z,-7.22
2022-12-08T21:49:58.455Z,-7.21
2022-12-08T21:52:26.359Z,-7.19
2022-12-08T21:54:54.486Z,-7.16
2022-12-08T21:57:24.553Z,-7.16
2022-12-08T21:59:52.446Z,-7.15
2022-12-08T22:02:22.722Z,-7.17
2022-12-08T22:04:52.836Z,-7.16
2022-12-08T22:07:21.672Z,-7.13
2022-12-08T22:09:49.821Z,-7.16
2022-12-08T22:12:17.953Z,-7.15
2022-12-08T22:14:50.255Z,-7.14
2022-12-08T22:17:18.722Z,-7.12
2022-12-08T22:19:46.768Z,-7.09
2022-12-08T22:22:14.750Z,-7.08
2022-12-08T22:24:42.854Z,-7.06
2022-12-08T22:27:11.271Z,-7.03
2022-12-08T22:29:39.094Z,-7.05
2022-12-08T22:32:09.770Z,-7.06
2022-12-08T22:34:37.857Z,-7.08
2022-12-08T22:37:05.719Z,-7.14
2022-12-08T22:39:33.696Z,-7.22
2022-12-08T22:42:01.605Z,-7.27
2022-12-08T22:44:29.755Z,-7.34
2022-12-08T22:46:57.667Z,-7.42
2022-12-08T22:49:27.642Z,-7.51
2022-12-08T22:51:55.495Z,-7.60
2022-12-08T22:54:23.350Z,-7.61
2022-12-08T22:56:51.927Z,-7.64
2022-12-08T22:59:19.740Z,-7.66
2022-12-08T23:01:47.499Z,-7.65
2022-12-08T23:04:17.987Z,-7.62
2022-12-08T23:06:47.787Z,-7.67
2022-12-08T23:09:15.836Z,-7.73
2022-12-08T23:11:44.315Z,-7.86
2022-12-08T23:14:12.512Z,-7.85
2022-12-08T23:16:40.501Z,-7.93
2022-12-08T23:19:08.675Z,-7.99
2022-12-08T23:21:36.611Z,-8.08
2022-12-08T23:24:06.306Z,-8.14
2022-12-08T23:26:35.333Z,-8.30
2022-12-08T23:29:04.007Z,-8.05
2022-12-08T23:31:32.214Z,-8.08
2022-12-08T23:34:00.390Z,-8.21
2022-12-08T23:36:28.331Z,-8.25
2022-12-08T23:38:56.982Z,-8.31
2022-12-08T23:41:26.132Z,-8.34
2022-12-08T23:43:54.134Z,-8.11
2022-12-08T23:46:23.576Z,-8.13
2022-12-08T23:48:52.272Z,-8.21
2022-12-08T23:51:20.638Z,-8.28
2022-12-08T23:53:49.840Z,-8.31
2022-12-08T23:56:19.266Z,-8.32
2022-12-08T23:58:48.726Z,-8.34
